sensor_id;sensor_type;location;lat;lon;timestamp;temperature;humidity
11091;DHT22;5599;52.210;21.046;2022-07-29T00:00:52;17.90;79.30
11091;DHT22;5599;52.210;21.046;2022-07-29T00:03:21;17.90;99.90
11091;DHT22;5599;52.210;21.046;2022-07-29T00:05:51;17.80;1.00
11091;DHT22;5599;52.210;21.046;2022-07-29T00:08:20;17.80;99.90
11091;DHT22;5599;52.210;21.046;2022-07-29T00:10:50;17.80;1.00
11091;DHT22;5599;52.210;21.046;2022-07-29T00:13:20;17.80;99.90
11091;DHT22;5599;52.210;21.046;2022-07-29T00:15:59;17.80;1.00
11091;DHT22;5599;52.210;21.046;2022-07-29T00:18:31;17.80;1.00
11091;DHT22;5599;52.210;21.046;2022-07-29T00:21:00;17.80;1.00
11091;DHT22;5599;52.210;21.046;2022-07-29T00:23:29;17.80;99.90
11091;DHT22;5599;52.210;21.046;2022-07-29T00:26:03;17.80;1.00
11091;DHT22;5599;52.210;21.046;2022-07-29T00:28:33;17.80;50.30
11091;DHT22;5599;52.210;21.046;2022-07-29T00:31:02;17.90;1.00
11091;DHT22;5599;52.210;21.046;2022-07-29T00:33:31;17.90;1.00
11091;DHT22;5599;52.210;21.046;2022-07-29T00:36:00;17.90;99.90
11091;DHT22;5599;52.210;21.046;2022-07-29T00:38:29;17.90;99.90
11091;DHT22;5599;52.210;21.046;2022-07-29T00:40:58;18.00;99.90
11091;DHT22;5599;52.210;21.046;2022-07-29T00:43:27;18.10;99.90
11091;DHT22;5599;52.210;21.046;2022-07-29T00:45:57;18.00;1.00
11091;DHT22;5599;52.210;21.046;2022-07-29T00:48:27;18.00;90.90
11091;DHT22;5599;52.210;21.046;2022-07-29T00:50:57;18.00;1.00
11091;DHT22;5599;52.210;21.046;2022-07-29T00:53:27;18.00;1.00
11091;DHT22;5599;52.210;21.046;2022-07-29T00:55:56;17.90;99.90
11091;DHT22;5599;52.210;21.046;2022-07-29T00:58:26;17.80;99.90
11091;DHT22;5599;52.210;21.046;2022-07-29T01:00:56;17.70;1.00
11091;DHT22;5599;52.210;21.046;2022-07-29T01:03:26;17.60;99.90
11091;DHT22;5599;52.210;21.046;2022-07-29T01:05:55;17.60;37.90
11091;DHT22;5599;52.210;21.046;2022-07-29T01:08:25;17.50;99.90
11091;DHT22;5599;52.210;21.046;2022-07-29T01:10:54;17.40;99.90
11091;DHT22;5599;52.210;21.046;2022-07-29T01:13:23;17.40;99.90
11091;DHT22;5599;52.210;21.046;2022-07-29T01:15:58;17.40;99.90
11091;DHT22;5599;52.210;21.046;2022-07-29T01:18:31;17.40;1.00
11091;DHT22;5599;52.210;21.046;2022-07-29T01:21:24;17.40;1.00
11091;DHT22;5599;52.210;21.046;2022-07-29T01:24:11;17.30;99.90
11091;DHT22;5599;52.210;21.046;2022-07-29T01:26:47;17.40;88.10
11091;DHT22;5599;52.210;21.046;2022-07-29T01:29:24;17.40;99.90
11091;DHT22;5599;52.210;21.046;2022-07-29T01:32:07;17.30;99.90
11091;DHT22;5599;52.210;21.046;2022-07-29T01:35:00;17.30;1.00
11091;DHT22;5599;52.210;21.046;2022-07-29T01:37:35;17.20;99.90
11091;DHT22;5599;52.210;21.046;2022-07-29T01:40:09;17.20;99.90
11091;DHT22;5599;52.210;21.046;2022-07-29T01:42:43;17.20;1.00
11091;DHT22;5599;52.210;21.046;2022-07-29T01:45:17;17.20;1.00
11091;DHT22;5599;52.210;21.046;2022-07-29T01:47:54;17.20;80.60
11091;DHT22;5599;52.210;21.046;2022-07-29T01:50:32;17.20;1.00
11091;DHT22;5599;52.210;21.046;2022-07-29T01:53:04;17.10;1.00
11091;DHT22;5599;52.210;21.046;2022-07-29T01:55:38;17.20;99.90
11091;DHT22;5599;52.210;21.046;2022-07-29T01:58:09;17.20;20.80
11091;DHT22;5599;52.210;21.046;2022-07-29T02:00:41;17.20;99.90
11091;DHT22;5599;52.210;21.046;2022-07-29T02:03:11;17.20;99.90
11091;DHT22;5599;52.210;21.046;2022-07-29T02:05:42;17.20;99.90
11091;DHT22;5599;52.210;21.046;2022-07-29T02:08:13;17.20;99.90
11091;DHT22;5599;52.210;21.046;2022-07-29T02:10:45;17.20;1.00
11091;DHT22;5599;52.210;21.046;2022-07-29T02:13:15;17.10;99.90
11091;DHT22;5599;52.210;21.046;2022-07-29T02:15:48;17.10;1.00
11091;DHT22;5599;52.210;21.046;2022-07-29T02:18:19;17.10;99.90
11091;DHT22;5599;52.210;21.046;2022-07-29T02:20:51;17.00;99.90
11091;DHT22;5599;52.210;21.046;2022-07-29T02:23:23;17.00;16.10
11091;DHT22;5599;52.210;21.046;2022-07-29T02:25:54;17.00;1.00
11091;DHT22;5599;52.210;21.046;2022-07-29T02:28:25;17.00;1.00
11091;DHT22;5599;52.210;21.046;2022-07-29T02:30:58;17.00;1.00
11091;DHT22;5599;52.210;21.046;2022-07-29T02:33:30;17.00;1.00
11091;DHT22;5599;52.210;21.046;2022-07-29T02:36:02;17.00;1.00
11091;DHT22;5599;52.210;21.046;2022-07-29T02:38:32;17.10;1.00
11091;DHT22;5599;52.210;21.046;2022-07-29T02:41:22;17.10;1.00
11091;DHT22;5599;52.210;21.046;2022-07-29T02:43:56;16.90;99.40
11091;DHT22;5599;52.210;21.046;2022-07-29T02:46:30;16.90;99.90
11091;DHT22;5599;52.210;21.046;2022-07-29T02:49:06;16.80;99.90
11091;DHT22;5599;52.210;21.046;2022-07-29T02:51:43;16.70;1.00
11091;DHT22;5599;52.210;21.046;2022-07-29T02:54:20;16.70;1.00
11091;DHT22;5599;52.210;21.046;2022-07-29T02:56:52;16.60;1.00
11091;DHT22;5599;52.210;21.046;2022-07-29T02:59:26;16.60;1.00
11091;DHT22;5599;52.210;21.046;2022-07-29T03:01:58;16.60;1.00
11091;DHT22;5599;52.210;21.046;2022-07-29T03:04:29;16.50;1.00
11091;DHT22;5599;52.210;21.046;2022-07-29T03:07:00;16.30;66.70
11091;DHT22;5599;52.210;21.046;2022-07-29T03:09:30;16.20;99.90
11091;DHT22;5599;52.210;21.046;2022-07-29T03:12:00;16.10;99.90
11091;DHT22;5599;52.210;21.046;2022-07-29T03:14:30;16.10;99.90
11091;DHT22;5599;52.210;21.046;2022-07-29T03:17:01;16.10;99.90
11091;DHT22;5599;52.210;21.046;2022-07-29T03:19:32;16.20;99.90
11091;DHT22;5599;52.210;21.046;2022-07-29T03:22:01;16.10;99.90
11091;DHT22;5599;52.210;21.046;2022-07-29T03:24:32;16.10;99.90
11091;DHT22;5599;52.210;21.046;2022-07-29T03:27:02;16.10;99.90
11091;DHT22;5599;52.210;21.046;2022-07-29T03:29:31;16.10;1.00
11091;DHT22;5599;52.210;21.046;2022-07-29T03:32:04;15.90;1.00
11091;DHT22;5599;52.210;21.046;2022-07-29T03:34:36;15.90;1.00
11091;DHT22;5599;52.210;21.046;2022-07-29T03:37:06;16.00;1.00
11091;DHT22;5599;52.210;21.046;2022-07-29T03:39:40;16.10;1.00
11091;DHT22;5599;52.210;21.046;2022-07-29T03:42:12;16.40;1.00
11091;DHT22;5599;52.210;21.046;2022-07-29T03:44:44;16.60;99.90
11091;DHT22;5599;52.210;21.046;2022-07-29T03:47:17;16.80;1.00
11091;DHT22;5599;52.210;21.046;2022-07-29T03:49:50;17.00;1.00
11091;DHT22;5599;52.210;21.046;2022-07-29T03:52:21;17.30;1.00
11091;DHT22;5599;52.210;21.046;2022-07-29T03:54:51;17.60;99.90
11091;DHT22;5599;52.210;21.046;2022-07-29T03:57:24;17.70;1.00
11091;DHT22;5599;52.210;21.046;2022-07-29T03:59:54;17.90;99.90
11091;DHT22;5599;52.210;21.046;2022-07-29T04:02:25;18.10;1.00
11091;DHT22;5599;52.210;21.046;2022-07-29T04:04:57;18.30;99.90
11091;DHT22;5599;52.210;21.046;2022-07-29T04:07:26;18.50;99.90
11091;DHT22;5599;52.210;21.046;2022-07-29T04:09:55;18.60;1.00
11091;DHT22;5599;52.210;21.046;2022-07-29T04:12:25;18.90;1.00
11091;DHT22;5599;52.210;21.046;2022-07-29T04:14:54;19.20;99.90
11091;DHT22;5599;52.210;21.046;2022-07-29T04:17:25;19.30;99.90
11091;DHT22;5599;52.210;21.046;2022-07-29T04:19:54;19.30;1.00
11091;DHT22;5599;52.210;21.046;2022-07-29T04:22:23;19.50;1.00
11091;DHT22;5599;52.210;21.046;2022-07-29T04:24:53;19.40;99.90
11091;DHT22;5599;52.210;21.046;2022-07-29T04:27:29;19.40;99.90
11091;DHT22;5599;52.210;21.046;2022-07-29T04:29:59;19.50;99.90
11091;DHT22;5599;52.210;21.046;2022-07-29T04:32:29;19.60;99.90
11091;DHT22;5599;52.210;21.046;2022-07-29T04:34:58;19.60;1.00
11091;DHT22;5599;52.210;21.046;2022-07-29T04:37:27;19.80;99.90
11091;DHT22;5599;52.210;21.046;2022-07-29T04:39:56;20.10;1.00
11091;DHT22;5599;52.210;21.046;2022-07-29T04:42:25;20.30;99.90
11091;DHT22;5599;52.210;21.046;2022-07-29T04:44:55;20.80;99.90
11091;DHT22;5599;52.210;21.046;2022-07-29T04:47:29;21.30;99.90
11091;DHT22;5599;52.210;21.046;2022-07-29T04:49:58;21.30;99.90
11091;DHT22;5599;52.210;21.046;2022-07-29T04:52:27;21.40;1.00
11091;DHT22;5599;52.210;21.046;2022-07-29T04:54:56;21.20;1.00
11091;DHT22;5599;52.210;21.046;2022-07-29T04:57:25;21.10;1.00
11091;DHT22;5599;52.210;21.046;2022-07-29T04:59:54;21.20;99.90
11091;DHT22;5599;52.210;21.046;2022-07-29T05:02:23;21.50;99.90
11091;DHT22;5599;52.210;21.046;2022-07-29T05:04:54;21.80;1.00
11091;DHT22;5599;52.210;21.046;2022-07-29T05:07:23;22.20;99.90
11091;DHT22;5599;52.210;21.046;2022-07-29T05:09:52;22.10;1.00
11091;DHT22;5599;52.210;21.046;2022-07-29T05:12:24;22.40;1.00
11091;DHT22;5599;52.210;21.046;2022-07-29T05:14:54;22.50;1.00
11091;DHT22;5599;52.210;21.046;2022-07-29T05:17:23;22.60;21.80
11091;DHT22;5599;52.210;21.046;2022-07-29T05:19:54;22.60;99.90
11091;DHT22;5599;52.210;21.046;2022-07-29T05:22:23;23.10;25.50
11091;DHT22;5599;52.210;21.046;2022-07-29T05:24:52;23.80;99.90
11091;DHT22;5599;52.210;21.046;2022-07-29T05:27:21;24.00;99.90
11091;DHT22;5599;52.210;21.046;2022-07-29T05:29:51;24.20;1.00
11091;DHT22;5599;52.210;21.046;2022-07-29T05:32:20;24.50;1.00
11091;DHT22;5599;52.210;21.046;2022-07-29T05:34:49;25.10;1.00
11091;DHT22;5599;52.210;21.046;2022-07-29T05:37:20;26.00;1.00
11091;DHT22;5599;52.210;21.046;2022-07-29T05:39:49;26.40;1.00
11091;DHT22;5599;52.210;21.046;2022-07-29T05:42:24;26.80;99.90
11091;DHT22;5599;52.210;21.046;2022-07-29T05:44:53;27.20;1.00
11091;DHT22;5599;52.210;21.046;2022-07-29T05:47:23;27.20;99.90
11091;DHT22;5599;52.210;21.046;2022-07-29T05:49:52;27.30;1.00
11091;DHT22;5599;52.210;21.046;2022-07-29T05:52:23;27.30;99.90
11091;DHT22;5599;52.210;21.046;2022-07-29T05:54:52;27.00;99.90
11091;DHT22;5599;52.210;21.046;2022-07-29T05:57:22;27.00;99.90
11091;DHT22;5599;52.210;21.046;2022-07-29T05:59:52;27.30;99.90
11091;DHT22;5599;52.210;21.046;2022-07-29T06:02:21;27.00;1.00
11091;DHT22;5599;52.210;21.046;2022-07-29T06:04:50;27.50;1.00
11091;DHT22;5599;52.210;21.046;2022-07-29T06:07:21;27.60;99.90
11091;DHT22;5599;52.210;21.046;2022-07-29T06:09:50;27.00;1.00
11091;DHT22;5599;52.210;21.046;2022-07-29T06:12:20;27.20;99.90
11091;DHT22;5599;52.210;21.046;2022-07-29T06:14:49;27.80;1.00
11091;DHT22;5599;52.210;21.046;2022-07-29T06:17:20;28.10;1.00
11091;DHT22;5599;52.210;21.046;2022-07-29T06:19:50;28.30;99.90
11091;DHT22;5599;52.210;21.046;2022-07-29T06:22:19;27.50;99.90
11091;DHT22;5599;52.210;21.046;2022-07-29T06:24:50;26.50;1.00
11091;DHT22;5599;52.210;21.046;2022-07-29T06:27:19;27.50;1.00
11091;DHT22;5599;52.210;21.046;2022-07-29T06:29:49;28.70;99.90
11091;DHT22;5599;52.210;21.046;2022-07-29T06:32:18;29.70;1.00
11091;DHT22;5599;52.210;21.046;2022-07-29T06:34:53;30.10;99.90
11091;DHT22;5599;52.210;21.046;2022-07-29T06:37:42;29.60;1.00
11091;DHT22;5599;52.210;21.046;2022-07-29T06:40:16;29.40;1.00
11091;DHT22;5599;52.210;21.046;2022-07-29T06:43:03;29.50;99.90
11091;DHT22;5599;52.210;21.046;2022-07-29T06:45:34;29.60;99.90
11091;DHT22;5599;52.210;21.046;2022-07-29T06:48:04;30.00;1.00
11091;DHT22;5599;52.210;21.046;2022-07-29T06:50:33;30.10;1.00
11091;DHT22;5599;52.210;21.046;2022-07-29T06:53:03;30.10;99.90
11091;DHT22;5599;52.210;21.046;2022-07-29T06:55:34;29.20;99.90
11091;DHT22;5599;52.210;21.046;2022-07-29T06:58:04;29.40;1.00
11091;DHT22;5599;52.210;21.046;2022-07-29T07:00:34;29.40;1.00
11091;DHT22;5599;52.210;21.046;2022-07-29T07:03:03;29.10;99.90
11091;DHT22;5599;52.210;21.046;2022-07-29T07:05:33;28.90;99.90
11091;DHT22;5599;52.210;21.046;2022-07-29T07:08:02;29.40;1.00
11091;DHT22;5599;52.210;21.046;2022-07-29T07:10:33;30.30;1.00
11091;DHT22;5599;52.210;21.046;2022-07-29T07:13:04;31.10;99.90
11091;DHT22;5599;52.210;21.046;2022-07-29T07:15:34;31.00;1.00
11091;DHT22;5599;52.210;21.046;2022-07-29T07:18:06;31.20;99.90
11091;DHT22;5599;52.210;21.046;2022-07-29T07:20:36;30.80;1.00
11091;DHT22;5599;52.210;21.046;2022-07-29T07:23:05;30.60;1.00
11091;DHT22;5599;52.210;21.046;2022-07-29T07:25:36;29.90;35.10
11091;DHT22;5599;52.210;21.046;2022-07-29T07:28:05;29.50;1.00
11091;DHT22;5599;52.210;21.046;2022-07-29T07:30:35;29.20;99.90
11091;DHT22;5599;52.210;21.046;2022-07-29T07:33:04;29.50;1.00
11091;DHT22;5599;52.210;21.046;2022-07-29T07:35:33;29.50;99.90
11091;DHT22;5599;52.210;21.046;2022-07-29T07:38:03;28.90;1.00
11091;DHT22;5599;52.210;21.046;2022-07-29T07:40:33;29.30;99.90
11091;DHT22;5599;52.210;21.046;2022-07-29T07:43:04;29.80;69.20
11091;DHT22;5599;52.210;21.046;2022-07-29T07:45:33;30.40;99.90
11091;DHT22;5599;52.210;21.046;2022-07-29T07:48:05;30.60;25.50
11091;DHT22;5599;52.210;21.046;2022-07-29T07:50:34;30.50;99.90
11091;DHT22;5599;52.210;21.046;2022-07-29T07:53:04;30.10;1.00
11091;DHT22;5599;52.210;21.046;2022-07-29T07:55:33;29.80;1.00
11091;DHT22;5599;52.210;21.046;2022-07-29T07:58:23;30.40;91.10
11091;DHT22;5599;52.210;21.046;2022-07-29T08:00:53;30.20;1.00
11091;DHT22;5599;52.210;21.046;2022-07-29T08:03:22;30.20;1.00
11091;DHT22;5599;52.210;21.046;2022-07-29T08:05:51;30.10;99.90
11091;DHT22;5599;52.210;21.046;2022-07-29T08:08:21;30.30;1.00
11091;DHT22;5599;52.210;21.046;2022-07-29T08:10:51;30.90;99.90
11091;DHT22;5599;52.210;21.046;2022-07-29T08:13:26;31.30;99.90
11091;DHT22;5599;52.210;21.046;2022-07-29T08:15:58;31.70;99.90
11091;DHT22;5599;52.210;21.046;2022-07-29T08:18:30;30.90;99.90
11091;DHT22;5599;52.210;21.046;2022-07-29T08:21:00;30.10;99.90
11091;DHT22;5599;52.210;21.046;2022-07-29T08:23:29;29.60;1.00
11091;DHT22;5599;52.210;21.046;2022-07-29T08:26:15;29.40;99.90
11091;DHT22;5599;52.210;21.046;2022-07-29T08:28:46;29.70;1.00
11091;DHT22;5599;52.210;21.046;2022-07-29T08:31:18;29.20;99.90
11091;DHT22;5599;52.210;21.046;2022-07-29T08:33:47;28.90;1.00
11091;DHT22;5599;52.210;21.046;2022-07-29T08:36:16;29.40;99.90
11091;DHT22;5599;52.210;21.046;2022-07-29T08:38:48;29.70;1.00
11091;DHT22;5599;52.210;21.046;2022-07-29T08:41:18;29.40;94.10
11091;DHT22;5599;52.210;21.046;2022-07-29T08:43:50;29.10;1.00
11091;DHT22;5599;52.210;21.046;2022-07-29T08:46:21;28.20;1.00
11091;DHT22;5599;52.210;21.046;2022-07-29T08:48:50;27.30;1.00
11091;DHT22;5599;52.210;21.046;2022-07-29T08:51:20;27.40;1.00
11091;DHT22;5599;52.210;21.046;2022-07-29T08:53:50;28.10;43.10
11091;DHT22;5599;52.210;21.046;2022-07-29T08:56:20;28.20;99.90
11091;DHT22;5599;52.210;21.046;2022-07-29T08:58:51;28.40;99.90
11091;DHT22;5599;52.210;21.046;2022-07-29T09:01:24;28.50;99.90
11091;DHT22;5599;52.210;21.046;2022-07-29T09:04:11;28.70;1.00
11091;DHT22;5599;52.210;21.046;2022-07-29T09:06:44;28.90;1.00
11091;DHT22;5599;52.210;21.046;2022-07-29T09:09:13;28.80;1.00
11091;DHT22;5599;52.210;21.046;2022-07-29T09:11:43;28.40;1.00
11091;DHT22;5599;52.210;21.046;2022-07-29T09:14:14;28.30;99.90
11091;DHT22;5599;52.210;21.046;2022-07-29T09:16:55;28.70;1.00
11091;DHT22;5599;52.210;21.046;2022-07-29T09:19:27;29.00;1.00
11091;DHT22;5599;52.210;21.046;2022-07-29T09:21:58;28.70;99.90
11091;DHT22;5599;52.210;21.046;2022-07-29T09:24:39;28.30;1.00
11091;DHT22;5599;52.210;21.046;2022-07-29T09:27:19;27.80;99.90
11091;DHT22;5599;52.210;21.046;2022-07-29T09:29:58;27.40;99.90
11091;DHT22;5599;52.210;21.046;2022-07-29T09:32:28;27.10;99.90
11091;DHT22;5599;52.210;21.046;2022-07-29T09:35:18;26.20;1.00
11091;DHT22;5599;52.210;21.046;2022-07-29T09:37:48;26.10;1.00
11091;DHT22;5599;52.210;21.046;2022-07-29T09:40:18;26.10;1.00
11091;DHT22;5599;52.210;21.046;2022-07-29T09:42:48;26.10;1.00
11091;DHT22;5599;52.210;21.046;2022-07-29T09:45:31;26.20;1.00
11091;DHT22;5599;52.210;21.046;2022-07-29T09:48:14;26.10;99.90
11091;DHT22;5599;52.210;21.046;2022-07-29T09:50:46;25.80;99.90
11091;DHT22;5599;52.210;21.046;2022-07-29T09:53:31;25.90;1.00
11091;DHT22;5599;52.210;21.046;2022-07-29T09:56:03;25.90;99.90
11091;DHT22;5599;52.210;21.046;2022-07-29T09:58:34;26.10;1.00
11091;DHT22;5599;52.210;21.046;2022-07-29T10:01:05;25.90;99.90
11091;DHT22;5599;52.210;21.046;2022-07-29T10:03:50;26.00;99.90
11091;DHT22;5599;52.210;21.046;2022-07-29T10:06:20;26.00;1.00
11091;DHT22;5599;52.210;21.046;2022-07-29T10:08:49;25.70;1.00
11091;DHT22;5599;52.210;21.046;2022-07-29T10:11:19;25.50;99.90
11091;DHT22;5599;52.210;21.046;2022-07-29T10:13:49;25.40;99.90
11091;DHT22;5599;52.210;21.046;2022-07-29T10:16:19;25.20;1.00
11091;DHT22;5599;52.210;21.046;2022-07-29T10:18:49;25.30;1.00
11091;DHT22;5599;52.210;21.046;2022-07-29T10:21:19;25.20;99.90
11091;DHT22;5599;52.210;21.046;2022-07-29T10:24:04;25.20;99.90
11091;DHT22;5599;52.210;21.046;2022-07-29T10:26:42;25.30;1.00
11091;DHT22;5599;52.210;21.046;2022-07-29T10:29:12;25.30;99.90
11091;DHT22;5599;52.210;21.046;2022-07-29T10:31:49;25.40;1.00
11091;DHT22;5599;52.210;21.046;2022-07-29T10:34:31;25.50;99.90
11091;DHT22;5599;52.210;21.046;2022-07-29T10:37:10;25.90;52.20
11091;DHT22;5599;52.210;21.046;2022-07-29T10:39:54;26.10;99.90
11091;DHT22;5599;52.210;21.046;2022-07-29T10:42:28;26.20;99.90
11091;DHT22;5599;52.210;21.046;2022-07-29T10:45:02;26.30;99.90
11091;DHT22;5599;52.210;21.046;2022-07-29T10:47:34;26.30;1.00
11091;DHT22;5599;52.210;21.046;2022-07-29T10:50:05;26.40;99.90
11091;DHT22;5599;52.210;21.046;2022-07-29T10:52:56;26.30;99.90
11091;DHT22;5599;52.210;21.046;2022-07-29T10:55:33;26.10;1.00
11091;DHT22;5599;52.210;21.046;2022-07-29T10:58:15;26.00;1.00
11091;DHT22;5599;52.210;21.046;2022-07-29T11:00:47;25.80;1.00
11091;DHT22;5599;52.210;21.046;2022-07-29T11:03:46;25.70;1.00
11091;DHT22;5599;52.210;21.046;2022-07-29T11:06:17;25.70;99.90
11091;DHT22;5599;52.210;21.046;2022-07-29T11:09:15;25.80;99.90
11091;DHT22;5599;52.210;21.046;2022-07-29T11:11:52;25.70;99.90
11091;DHT22;5599;52.210;21.046;2022-07-29T11:14:54;25.50;99.90
11091;DHT22;5599;52.210;21.046;2022-07-29T11:17:25;25.60;1.00
11091;DHT22;5599;52.210;21.046;2022-07-29T11:20:34;25.50;99.90
11091;DHT22;5599;52.210;21.046;2022-07-29T11:23:24;25.40;99.90
11091;DHT22;5599;52.210;21.046;2022-07-29T11:26:17;25.40;99.90
11091;DHT22;5599;52.210;21.046;2022-07-29T11:28:54;25.40;99.90
11091;DHT22;5599;52.210;21.046;2022-07-29T11:31:37;25.50;99.90
11091;DHT22;5599;52.210;21.046;2022-07-29T11:34:20;25.50;25.90
11091;DHT22;5599;52.210;21.046;2022-07-29T11:37:15;25.60;54.90
11091;DHT22;5599;52.210;21.046;2022-07-29T11:39:47;25.80;1.00
11091;DHT22;5599;52.210;21.046;2022-07-29T11:42:42;25.90;99.90
11091;DHT22;5599;52.210;21.046;2022-07-29T11:45:15;26.00;99.90
11091;DHT22;5599;52.210;21.046;2022-07-29T11:48:05;26.00;99.90
11091;DHT22;5599;52.210;21.046;2022-07-29T11:50:55;26.10;99.90
11091;DHT22;5599;52.210;21.046;2022-07-29T11:53:26;26.10;99.90
11091;DHT22;5599;52.210;21.046;2022-07-29T11:56:00;26.30;85.50
11091;DHT22;5599;52.210;21.046;2022-07-29T11:58:31;26.60;1.00
11091;DHT22;5599;52.210;21.046;2022-07-29T12:01:00;26.70;1.00
11091;DHT22;5599;52.210;21.046;2022-07-29T12:04:02;26.90;99.90
11091;DHT22;5599;52.210;21.046;2022-07-29T12:06:33;26.90;99.90
11091;DHT22;5599;52.210;21.046;2022-07-29T12:09:08;26.90;99.90
11091;DHT22;5599;52.210;21.046;2022-07-29T12:11:41;26.70;99.90
11091;DHT22;5599;52.210;21.046;2022-07-29T12:14:26;26.70;99.90
11091;DHT22;5599;52.210;21.046;2022-07-29T12:16:55;26.30;99.90
11091;DHT22;5599;52.210;21.046;2022-07-29T12:19:25;26.40;1.00
11091;DHT22;5599;52.210;21.046;2022-07-29T12:21:55;26.30;1.00
11091;DHT22;5599;52.210;21.046;2022-07-29T12:24:42;26.50;99.90
11091;DHT22;5599;52.210;21.046;2022-07-29T12:27:17;26.70;1.00
11091;DHT22;5599;52.210;21.046;2022-07-29T12:29:58;27.20;99.90
11091;DHT22;5599;52.210;21.046;2022-07-29T12:32:32;27.20;1.00
11091;DHT22;5599;52.210;21.046;2022-07-29T12:35:04;26.80;99.20
11091;DHT22;5599;52.210;21.046;2022-07-29T12:37:35;26.70;1.00
11091;DHT22;5599;52.210;21.046;2022-07-29T12:40:12;26.40;1.00
11091;DHT22;5599;52.210;21.046;2022-07-29T12:43:07;26.30;1.00
11091;DHT22;5599;52.210;21.046;2022-07-29T12:45:39;26.00;1.00
11091;DHT22;5599;52.210;21.046;2022-07-29T12:48:09;25.70;99.90
11091;DHT22;5599;52.210;21.046;2022-07-29T12:50:53;25.70;1.00
11091;DHT22;5599;52.210;21.046;2022-07-29T12:53:22;25.80;1.00
11091;DHT22;5599;52.210;21.046;2022-07-29T12:55:54;25.90;1.00
11091;DHT22;5599;52.210;21.046;2022-07-29T12:58:31;26.00;1.00
11091;DHT22;5599;52.210;21.046;2022-07-29T13:01:06;26.30;1.00
11091;DHT22;5599;52.210;21.046;2022-07-29T13:03:46;26.40;1.00
11091;DHT22;5599;52.210;21.046;2022-07-29T13:06:29;26.30;1.00
11091;DHT22;5599;52.210;21.046;2022-07-29T13:09:04;26.40;99.90
11091;DHT22;5599;52.210;21.046;2022-07-29T13:11:37;26.40;1.00
11091;DHT22;5599;52.210;21.046;2022-07-29T13:14:14;26.50;1.00
11091;DHT22;5599;52.210;21.046;2022-07-29T13:17:04;26.50;1.00
11091;DHT22;5599;52.210;21.046;2022-07-29T13:19:36;26.60;99.90
11091;DHT22;5599;52.210;21.046;2022-07-29T13:22:06;26.60;1.00
11091;DHT22;5599;52.210;21.046;2022-07-29T13:24:50;26.50;86.90
11091;DHT22;5599;52.210;21.046;2022-07-29T13:27:22;26.50;60.70
11091;DHT22;5599;52.210;21.046;2022-07-29T13:29:53;26.60;99.90
11091;DHT22;5599;52.210;21.046;2022-07-29T13:32:24;26.50;99.90
11091;DHT22;5599;52.210;21.046;2022-07-29T13:34:56;26.20;99.90
11091;DHT22;5599;52.210;21.046;2022-07-29T13:37:26;26.00;99.90
11091;DHT22;5599;52.210;21.046;2022-07-29T13:39:57;25.90;1.00
11091;DHT22;5599;52.210;21.046;2022-07-29T13:42:29;25.90;1.00
11091;DHT22;5599;52.210;21.046;2022-07-29T13:44:58;25.90;1.00
11091;DHT22;5599;52.210;21.046;2022-07-29T13:47:28;25.80;1.00
11091;DHT22;5599;52.210;21.046;2022-07-29T13:49:59;25.60;1.00
11091;DHT22;5599;52.210;21.046;2022-07-29T13:52:29;25.60;1.00
11091;DHT22;5599;52.210;21.046;2022-07-29T13:54:58;25.60;1.00
11091;DHT22;5599;52.210;21.046;2022-07-29T13:57:29;25.50;1.00
11091;DHT22;5599;52.210;21.046;2022-07-29T13:59:59;25.60;99.90
11091;DHT22;5599;52.210;21.046;2022-07-29T14:02:34;25.80;99.90
11091;DHT22;5599;52.210;21.046;2022-07-29T14:05:06;25.90;1.00
11091;DHT22;5599;52.210;21.046;2022-07-29T14:07:35;26.00;99.90
11091;DHT22;5599;52.210;21.046;2022-07-29T14:10:06;26.10;99.90
11091;DHT22;5599;52.210;21.046;2022-07-29T14:12:38;26.20;1.00
11091;DHT22;5599;52.210;21.046;2022-07-29T14:15:09;26.20;99.90
11091;DHT22;5599;52.210;21.046;2022-07-29T14:17:38;26.10;99.90
11091;DHT22;5599;52.210;21.046;2022-07-29T14:20:08;26.00;99.90
11091;DHT22;5599;52.210;21.046;2022-07-29T14:22:37;25.90;1.00
11091;DHT22;5599;52.210;21.046;2022-07-29T14:25:11;25.70;1.00
11091;DHT22;5599;52.210;21.046;2022-07-29T14:27:43;25.60;1.00
11091;DHT22;5599;52.210;21.046;2022-07-29T14:30:13;25.60;99.90
11091;DHT22;5599;52.210;21.046;2022-07-29T14:32:43;25.50;99.90
11091;DHT22;5599;52.210;21.046;2022-07-29T14:35:12;25.60;56.50
11091;DHT22;5599;52.210;21.046;2022-07-29T14:37:42;25.70;99.90
11091;DHT22;5599;52.210;21.046;2022-07-29T14:40:11;25.60;1.00
11091;DHT22;5599;52.210;21.046;2022-07-29T14:42:40;25.60;1.00
11091;DHT22;5599;52.210;21.046;2022-07-29T14:45:11;25.50;17.50
11091;DHT22;5599;52.210;21.046;2022-07-29T14:47:41;25.50;1.00
11091;DHT22;5599;52.210;21.046;2022-07-29T14:50:10;25.50;99.90
11091;DHT22;5599;52.210;21.046;2022-07-29T14:52:41;25.40;99.90
11091;DHT22;5599;52.210;21.046;2022-07-29T14:55:10;25.40;1.00
11091;DHT22;5599;52.210;21.046;2022-07-29T14:57:47;25.40;1.00
11091;DHT22;5599;52.210;21.046;2022-07-29T15:00:19;25.40;99.90
11091;DHT22;5599;52.210;21.046;2022-07-29T15:02:48;25.30;1.00
11091;DHT22;5599;52.210;21.046;2022-07-29T15:05:37;25.40;99.90
11091;DHT22;5599;52.210;21.046;2022-07-29T15:08:06;25.30;1.00
11091;DHT22;5599;52.210;21.046;2022-07-29T15:10:36;25.20;99.90
11091;DHT22;5599;52.210;21.046;2022-07-29T15:13:05;25.20;99.90
11091;DHT22;5599;52.210;21.046;2022-07-29T15:15:36;25.30;99.90
11091;DHT22;5599;52.210;21.046;2022-07-29T15:18:06;25.40;99.90
11091;DHT22;5599;52.210;21.046;2022-07-29T15:20:35;25.50;99.90
11091;DHT22;5599;52.210;21.046;2022-07-29T15:23:04;25.40;30.00
11091;DHT22;5599;52.210;21.046;2022-07-29T15:25:37;25.40;1.00
11091;DHT22;5599;52.210;21.046;2022-07-29T15:28:06;25.40;99.90
11091;DHT22;5599;52.210;21.046;2022-07-29T15:30:37;25.40;1.00
11091;DHT22;5599;52.210;21.046;2022-07-29T15:33:09;25.40;99.90
11091;DHT22;5599;52.210;21.046;2022-07-29T15:35:38;25.40;99.90
11091;DHT22;5599;52.210;21.046;2022-07-29T15:38:08;25.20;1.00
11091;DHT22;5599;52.210;21.046;2022-07-29T15:40:37;25.20;99.90
11091;DHT22;5599;52.210;21.046;2022-07-29T15:43:08;25.10;99.90
11091;DHT22;5599;52.210;21.046;2022-07-29T15:45:40;25.00;1.00
11091;DHT22;5599;52.210;21.046;2022-07-29T15:48:30;25.10;36.00
11091;DHT22;5599;52.210;21.046;2022-07-29T15:50:59;25.10;1.00
11091;DHT22;5599;52.210;21.046;2022-07-29T15:53:28;25.10;99.90
11091;DHT22;5599;52.210;21.046;2022-07-29T15:55:59;25.00;1.00
11091;DHT22;5599;52.210;21.046;2022-07-29T15:58:28;24.90;1.00
11091;DHT22;5599;52.210;21.046;2022-07-29T16:00:59;24.80;1.00
11091;DHT22;5599;52.210;21.046;2022-07-29T16:03:29;24.80;1.00
11091;DHT22;5599;52.210;21.046;2022-07-29T16:05:58;24.90;1.00
11091;DHT22;5599;52.210;21.046;2022-07-29T16:08:27;24.90;1.00
11091;DHT22;5599;52.210;21.046;2022-07-29T16:10:57;24.80;99.90
11091;DHT22;5599;52.210;21.046;2022-07-29T16:13:26;24.80;1.00